createdAt,value
2023-04-07T00:00:06.847Z,2.31
2023-04-07T00:02:39.111Z,2.16
2023-04-07T00:05:11.897Z,29.52
2023-04-07T00:07:55.118Z,41.88
2023-04-07T00:10:28.683Z,39.89
2023-04-07T00:13:03.528Z,43.14
2023-04-07T00:15:35.906Z,47.38
2023-04-07T00:18:08.355Z,57.68
2023-04-07T00:20:40.608Z,58.14
2023-04-07T00:23:12.808Z,58.68
2023-04-07T00:25:45.038Z,71.34
2023-04-07T00:28:19.810Z,76.94
2023-04-07T00:30:52.104Z,79.12
2023-04-07T00:33:24.337Z,80.54
2023-04-07T00:35:58.126Z,78.49
2023-04-07T00:38:30.805Z,78.17
2023-04-07T00:41:03.370Z,78.00
2023-04-07T00:43:38.580Z,79.63
2023-04-07T00:46:10.845Z,82.16
2023-04-07T00:48:43.182Z,84.76
2023-04-07T00:51:16.232Z,84.09
2023-04-07T00:53:48.697Z,87.43
2023-04-07T00:56:20.947Z,86.21
2023-04-07T00:58:56.227Z,84.19
2023-04-07T01:01:35.674Z,85.45
2023-04-07T01:04:13.564Z,82.96
2023-04-07T01:06:54.517Z,85.78
2023-04-07T01:09:34.527Z,83.98
2023-04-07T01:12:14.457Z,84.49
2023-04-07T01:14:55.560Z,83.38
2023-04-07T01:17:31.955Z,83.27
2023-04-07T01:20:08.557Z,83.26
2023-04-07T01:22:47.533Z,89.24
2023-04-07T01:25:31.453Z,87.51
2023-04-07T01:28:23.195Z,91.28
2023-04-07T01:31:02.621Z,91.39
2023-04-07T01:33:38.341Z,94.21
2023-04-07T01:36:13.191Z,92.66
2023-04-07T01:38:48.071Z,90.10
2023-04-07T01:41:22.950Z,97.79
2023-04-07T01:43:57.913Z,94.69
2023-04-07T01:46:33.646Z,95.39
2023-04-07T01:49:08.350Z,95.57
2023-04-07T01:51:41.382Z,100.64
2023-04-07T01:54:13.756Z,104.82
2023-04-07T01:56:46.160Z,105.89
2023-04-07T01:59:18.476Z,107.81
2023-04-07T02:01:53.403Z,111.22
2023-04-07T02:04:33.733Z,114.79
2023-04-07T02:07:12.992Z,115.77
2023-04-07T02:09:49.422Z,115.24
2023-04-07T02:12:21.836Z,114.08
2023-04-07T02:14:54.799Z,114.55
2023-04-07T02:17:32.526Z,114.17
2023-04-07T02:20:06.840Z,115.49
2023-04-07T02:22:40.212Z,116.03
2023-04-07T02:25:26.129Z,115.70
2023-04-07T02:28:00.721Z,113.38
2023-04-07T02:30:33.321Z,110.76
2023-04-07T02:33:08.264Z,116.07
2023-04-07T02:35:40.462Z,116.44
2023-04-07T02:38:12.648Z,112.70
2023-04-07T02:40:44.922Z,111.58
2023-04-07T02:43:19.536Z,109.79
2023-04-07T02:45:51.870Z,112.60
2023-04-07T02:48:26.728Z,110.86
2023-04-07T02:50:58.947Z,111.68
2023-04-07T02:53:31.264Z,107.23
2023-04-07T02:56:03.508Z,105.11
2023-04-07T02:58:35.801Z,102.93
2023-04-07T03:01:08.355Z,104.25
2023-04-07T03:03:45.334Z,104.16
2023-04-07T03:06:17.718Z,108.80
2023-04-07T03:08:49.982Z,101.49
2023-04-07T03:11:22.260Z,102.39
2023-04-07T03:13:54.723Z,104.16
2023-04-07T03:16:27.314Z,99.88
2023-04-07T03:19:02.140Z,97.01
2023-04-07T03:21:34.633Z,97.64
2023-04-07T03:24:06.897Z,93.79
2023-04-07T03:26:39.232Z,94.36
2023-04-07T03:29:11.397Z,88.17
2023-04-07T03:31:43.650Z,87.94
2023-04-07T03:34:18.390Z,87.41
2023-04-07T03:36:50.661Z,86.04
2023-04-07T03:39:23.057Z,85.38
2023-04-07T03:41:55.306Z,83.39
2023-04-07T03:44:27.577Z,80.09
2023-04-07T03:46:59.823Z,80.62
2023-04-07T03:49:34.603Z,81.22
2023-04-07T03:52:06.838Z,85.92
2023-04-07T03:54:39.161Z,82.09
2023-04-07T03:57:11.537Z,81.18
2023-04-07T03:59:43.849Z,82.20
2023-04-07T04:02:16.276Z,81.54
2023-04-07T04:04:51.205Z,83.99
2023-04-07T04:07:23.526Z,81.99
2023-04-07T04:09:56.320Z,80.91
2023-04-07T04:12:28.848Z,82.72
2023-04-07T04:15:01.017Z,82.65
2023-04-07T04:17:33.310Z,80.76
2023-04-07T04:20:08.802Z,82.54
2023-04-07T04:22:41.030Z,81.43
2023-04-07T04:25:13.984Z,83.74
2023-04-07T04:27:46.394Z,82.99
2023-04-07T04:30:18.887Z,85.79
2023-04-07T04:32:51.054Z,85.49
2023-04-07T04:35:26.186Z,85.36
2023-04-07T04:37:58.454Z,85.66
2023-04-07T04:40:30.702Z,84.00
2023-04-07T04:43:07.062Z,87.58
2023-04-07T04:45:39.239Z,86.20
2023-04-07T04:48:11.852Z,88.01
2023-04-07T04:50:46.715Z,88.04
2023-04-07T04:53:18.886Z,88.94
2023-04-07T04:55:52.420Z,87.57
2023-04-07T04:58:25.653Z,88.09
2023-04-07T05:01:00.612Z,86.26
2023-04-07T05:03:33.610Z,81.69
2023-04-07T05:06:08.854Z,76.61
2023-04-07T05:08:41.227Z,77.22
2023-04-07T05:11:13.602Z,75.99
2023-04-07T05:13:45.846Z,72.72
2023-04-07T05:16:18.128Z,71.01
2023-04-07T05:18:50.356Z,68.46
2023-04-07T05:21:25.162Z,69.80
2023-04-07T05:23:57.631Z,71.91
2023-04-07T05:26:29.964Z,70.34
2023-04-07T05:29:02.175Z,69.29
2023-04-07T05:31:36.213Z,72.28
2023-04-07T05:34:08.433Z,72.51
2023-04-07T05:36:43.436Z,73.18
2023-04-07T05:39:15.648Z,73.91
2023-04-07T05:41:47.879Z,73.85
2023-04-07T05:44:20.106Z,74.55
2023-04-07T05:46:52.297Z,75.24
2023-04-07T05:49:24.604Z,76.11
2023-04-07T05:51:59.434Z,72.06
2023-04-07T05:54:31.957Z,69.64
2023-04-07T05:57:04.138Z,68.73
2023-04-07T05:59:36.908Z,65.39
2023-04-07T06:02:09.795Z,66.40
2023-04-07T06:04:42.096Z,62.56
2023-04-07T06:07:16.918Z,67.09
2023-04-07T06:09:49.168Z,64.16
2023-04-07T06:12:21.606Z,62.10
2023-04-07T06:14:57.912Z,62.54
2023-04-07T06:17:30.187Z,64.64
2023-04-07T06:20:02.313Z,62.96
2023-04-07T06:22:38.370Z,66.03
2023-04-07T06:25:11.863Z,62.17
2023-04-07T06:27:44.181Z,62.56
2023-04-07T06:30:17.244Z,64.36
2023-04-07T06:32:49.615Z,61.94
2023-04-07T06:35:27.043Z,63.06
2023-04-07T06:38:02.435Z,61.99
2023-04-07T06:40:34.960Z,62.59
2023-04-07T06:43:07.168Z,63.30
2023-04-07T06:45:39.391Z,64.91
2023-04-07T06:48:12.030Z,64.40
2023-04-07T06:50:44.199Z,65.63
2023-04-07T06:53:19.129Z,67.15
2023-04-07T06:55:51.335Z,68.66
2023-04-07T06:58:23.581Z,67.29
2023-04-07T07:00:55.940Z,72.12
2023-04-07T07:03:29.695Z,72.64
2023-04-07T07:06:03.181Z,74.58
2023-04-07T07:08:38.012Z,74.03
2023-04-07T07:11:10.182Z,80.04
2023-04-07T07:13:42.375Z,81.21
2023-04-07T07:16:14.746Z,81.72
2023-04-07T07:18:47.009Z,82.89
2023-04-07T07:21:19.192Z,81.51
2023-04-07T07:23:53.994Z,82.19
2023-04-07T07:26:26.487Z,80.69
2023-04-07T07:28:58.872Z,78.45
2023-04-07T07:31:31.647Z,79.40
2023-04-07T07:34:04.028Z,76.51
2023-04-07T07:36:36.218Z,76.22
2023-04-07T07:39:11.278Z,76.86
2023-04-07T07:41:43.746Z,74.83
2023-04-07T07:44:16.055Z,74.39
2023-04-07T07:46:48.285Z,71.62
2023-04-07T07:49:21.843Z,70.69
2023-04-07T07:51:54.045Z,73.78
2023-04-07T07:54:28.841Z,67.72
2023-04-07T07:57:01.049Z,67.96
2023-04-07T07:59:33.577Z,71.16
2023-04-07T08:02:05.816Z,66.44
2023-04-07T08:04:39.126Z,63.04
2023-04-07T08:07:11.746Z,64.51
2023-04-07T08:09:46.539Z,62.41
2023-04-07T08:12:18.803Z,61.03
2023-04-07T08:14:51.034Z,62.35
2023-04-07T08:17:23.228Z,61.14
2023-04-07T08:19:55.623Z,55.91
2023-04-07T08:22:27.831Z,55.47
2023-04-07T08:25:02.609Z,53.05
2023-04-07T08:27:34.848Z,49.24
2023-04-07T08:30:10.045Z,46.41
2023-04-07T08:32:44.402Z,48.10
2023-04-07T08:35:16.850Z,45.72
2023-04-07T08:37:49.807Z,43.09
2023-04-07T08:40:24.709Z,37.36
2023-04-07T08:42:57.305Z,40.46
2023-04-07T08:45:31.714Z,41.94
2023-04-07T08:48:13.653Z,41.36
2023-04-07T08:50:51.786Z,40.51
2023-04-07T08:53:30.967Z,40.26
2023-04-07T08:56:06.574Z,41.26
2023-04-07T08:58:40.527Z,42.46
2023-04-07T09:01:14.425Z,37.21
2023-04-07T09:03:49.070Z,40.81
2023-04-07T09:06:21.741Z,39.87
2023-04-07T09:08:55.254Z,39.16
2023-04-07T09:11:34.646Z,39.62
2023-04-07T09:14:06.973Z,37.02
2023-04-07T09:16:39.887Z,37.38
2023-04-07T09:19:12.130Z,38.84
2023-04-07T09:21:55.472Z,40.06
2023-04-07T09:24:31.794Z,37.12
2023-04-07T09:27:18.000Z,39.32
2023-04-07T09:29:51.631Z,38.02
2023-04-07T09:32:41.621Z,39.96
2023-04-07T09:35:14.774Z,39.39
2023-04-07T09:37:47.067Z,41.35
2023-04-07T09:40:30.583Z,40.44
2023-04-07T09:43:07.880Z,40.30
2023-04-07T09:45:40.115Z,38.36
2023-04-07T09:48:22.282Z,37.70
2023-04-07T09:50:54.577Z,32.99
2023-04-07T09:53:47.820Z,34.95
2023-04-07T09:56:22.590Z,36.19
2023-04-07T09:58:57.644Z,34.19
2023-04-07T10:01:30.068Z,34.36
2023-04-07T10:04:03.843Z,31.74
2023-04-07T10:06:36.997Z,31.84
2023-04-07T10:09:10.486Z,32.41
2023-04-07T10:11:43.472Z,31.55
2023-04-07T10:14:20.750Z,31.86
2023-04-07T10:16:53.564Z,31.52
2023-04-07T10:19:28.315Z,30.59
2023-04-07T10:22:02.278Z,30.84
2023-04-07T10:24:55.573Z,27.83
2023-04-07T10:27:34.968Z,25.75
2023-04-07T10:30:18.898Z,24.29
2023-04-07T10:32:51.976Z,24.32
2023-04-07T10:35:26.161Z,25.36
2023-04-07T10:38:15.338Z,25.24
2023-04-07T10:40:47.673Z,25.39
2023-04-07T10:43:45.218Z,26.29
2023-04-07T10:46:20.116Z,24.66
2023-04-07T10:49:14.741Z,23.64
2023-04-07T10:51:49.065Z,22.50
2023-04-07T10:54:23.956Z,25.69
2023-04-07T10:57:15.933Z,29.01
2023-04-07T11:00:17.984Z,32.16
2023-04-07T11:02:53.069Z,34.29
2023-04-07T11:05:26.756Z,36.96
2023-04-07T11:08:02.750Z,37.15
2023-04-07T11:10:34.979Z,37.97
2023-04-07T11:13:12.373Z,38.69
2023-04-07T11:15:44.618Z,37.40
2023-04-07T11:18:21.627Z,36.20
2023-04-07T11:20:58.923Z,33.50
2023-04-07T11:23:31.717Z,34.94
2023-04-07T11:26:05.972Z,35.94
2023-04-07T11:28:38.449Z,35.82
2023-04-07T11:31:10.722Z,36.54
2023-04-07T11:33:47.596Z,37.34
2023-04-07T11:36:32.506Z,38.71
2023-04-07T11:39:06.117Z,40.09
2023-04-07T11:41:49.540Z,39.44
2023-04-07T11:44:21.868Z,36.66
2023-04-07T11:46:58.502Z,34.11
2023-04-07T11:49:34.471Z,33.44
2023-04-07T11:52:08.825Z,29.59
2023-04-07T11:54:47.117Z,32.16
2023-04-07T11:57:27.637Z,32.86
2023-04-07T12:00:10.985Z,35.78
2023-04-07T12:02:43.752Z,38.41
2023-04-07T12:05:18.803Z,40.86
2023-04-07T12:07:58.725Z,43.29
2023-04-07T12:10:31.147Z,42.69
2023-04-07T12:13:03.328Z,42.90
2023-04-07T12:15:35.539Z,41.65
2023-04-07T12:18:08.326Z,41.22
2023-04-07T12:20:43.053Z,36.18
2023-04-07T12:23:15.207Z,35.88
2023-04-07T12:25:47.984Z,34.09
2023-04-07T12:28:20.129Z,33.69
2023-04-07T12:30:52.346Z,29.70
2023-04-07T12:33:24.673Z,26.92
2023-04-07T12:35:59.487Z,26.99
2023-04-07T12:38:31.727Z,26.64
2023-04-07T12:41:03.921Z,26.89
2023-04-07T12:43:36.160Z,26.42
2023-04-07T12:46:08.443Z,25.97
2023-04-07T12:48:40.905Z,25.80
2023-04-07T12:51:15.704Z,29.97
2023-04-07T12:53:48.455Z,29.79
2023-04-07T12:56:22.584Z,24.73
2023-04-07T12:58:54.751Z,23.54
2023-04-07T13:01:27.396Z,25.99
2023-04-07T13:03:59.929Z,25.61
2023-04-07T13:06:35.070Z,26.35
2023-04-07T13:09:07.428Z,26.61
2023-04-07T13:11:39.664Z,25.71
2023-04-07T13:14:11.847Z,27.47
2023-04-07T13:16:44.031Z,26.51
2023-04-07T13:19:16.214Z,25.17
2023-04-07T13:21:51.296Z,25.82
2023-04-07T13:24:23.894Z,27.41
2023-04-07T13:26:56.319Z,29.10
2023-04-07T13:29:28.867Z,29.53
2023-04-07T13:32:09.815Z,31.85
2023-04-07T13:34:41.982Z,39.73
2023-04-07T13:37:16.794Z,42.53
2023-04-07T13:39:49.104Z,43.24
2023-04-07T13:42:21.512Z,44.71
2023-04-07T13:44:54.701Z,44.83
2023-04-07T13:47:27.100Z,46.15
2023-04-07T13:49:59.287Z,44.86
2023-04-07T13:52:35.733Z,42.81
2023-04-07T13:55:08.810Z,37.44
2023-04-07T13:57:41.017Z,36.96
2023-04-07T14:00:14.758Z,35.66
2023-04-07T14:02:48.956Z,33.66
2023-04-07T14:05:21.374Z,35.57
2023-04-07T14:07:56.131Z,32.47
2023-04-07T14:10:28.351Z,33.04
2023-04-07T14:13:01.699Z,31.76
2023-04-07T14:15:34.299Z,32.22
2023-04-07T14:18:06.590Z,31.76
2023-04-07T14:20:38.866Z,31.49
2023-04-07T14:23:16.679Z,32.23
2023-04-07T14:25:52.894Z,28.56
2023-04-07T14:28:25.133Z,29.79
2023-04-07T14:30:57.750Z,31.68
2023-04-07T14:33:30.027Z,33.27
2023-04-07T14:36:02.666Z,30.88
2023-04-07T14:38:37.701Z,29.65
2023-04-07T14:41:10.824Z,30.76
2023-04-07T14:43:43.743Z,33.56
2023-04-07T14:46:16.013Z,42.31
2023-04-07T14:48:49.681Z,44.43
2023-04-07T14:51:22.090Z,46.97
2023-04-07T14:53:57.812Z,44.58
2023-04-07T14:56:30.013Z,43.07
2023-04-07T14:59:02.144Z,42.06
2023-04-07T15:01:34.457Z,47.52
2023-04-07T15:04:06.735Z,48.01
2023-04-07T15:06:39.040Z,47.50
2023-04-07T15:09:13.832Z,45.31
2023-04-07T15:11:46.287Z,47.27
2023-04-07T15:14:18.966Z,47.81
2023-04-07T15:16:51.227Z,47.56
2023-04-07T15:19:23.437Z,50.04
2023-04-07T15:21:55.613Z,50.56
2023-04-07T15:24:30.677Z,47.03
2023-04-07T15:27:03.055Z,41.74
2023-04-07T15:29:35.245Z,42.01
2023-04-07T15:32:07.453Z,48.59
2023-04-07T15:34:39.616Z,53.79
2023-04-07T15:37:11.896Z,54.81
2023-04-07T15:39:46.706Z,59.31
2023-04-07T15:42:18.858Z,56.61
2023-04-07T15:44:51.006Z,54.26
2023-04-07T15:47:23.212Z,51.66
2023-04-07T15:49:55.936Z,54.74
2023-04-07T15:52:28.843Z,58.13
2023-04-07T15:55:03.837Z,59.11
2023-04-07T15:57:36.099Z,58.52
2023-04-07T16:00:09.239Z,61.74
2023-04-07T16:02:42.194Z,66.74
2023-04-07T16:05:14.637Z,63.95
2023-04-07T16:07:46.907Z,59.47
2023-04-07T16:10:22.044Z,64.56
2023-04-07T16:12:54.311Z,67.54
2023-04-07T16:15:39.497Z,70.31
2023-04-07T16:18:14.361Z,71.66
2023-04-07T16:20:46.620Z,72.15
2023-04-07T16:23:18.871Z,77.91
2023-04-07T16:25:53.939Z,81.54
2023-04-07T16:28:26.151Z,84.42
2023-04-07T16:30:58.417Z,91.44
2023-04-07T16:33:30.690Z,131.43
2023-04-07T16:36:03.086Z,100.80
2023-04-07T16:38:35.333Z,100.15
2023-04-07T16:41:11.497Z,105.61
2023-04-07T16:43:43.642Z,102.65
2023-04-07T16:46:15.965Z,103.94
2023-04-07T16:48:48.440Z,105.32
2023-04-07T16:51:21.273Z,109.89
2023-04-07T16:53:53.522Z,108.56
2023-04-07T16:56:28.947Z,102.82
2023-04-07T16:59:03.432Z,103.55
2023-04-07T17:01:36.294Z,106.84
2023-04-07T17:04:08.938Z,106.49
2023-04-07T17:06:41.548Z,106.53
2023-04-07T17:09:16.211Z,104.61
2023-04-07T17:11:51.069Z,101.33
2023-04-07T17:14:24.283Z,97.88
2023-04-07T17:16:56.641Z,101.61
2023-04-07T17:19:29.475Z,107.24
2023-04-07T17:22:01.747Z,101.61
2023-04-07T17:24:34.048Z,103.53
2023-04-07T17:27:08.953Z,101.89
2023-04-07T17:29:41.196Z,105.04
2023-04-07T17:32:13.458Z,98.87
2023-04-07T17:34:45.638Z,96.70
2023-04-07T17:37:17.895Z,103.86
2023-04-07T17:39:50.144Z,109.44
2023-04-07T17:42:25.048Z,103.69
2023-04-07T17:44:58.008Z,106.14
2023-04-07T17:47:30.243Z,110.84
2023-04-07T17:50:02.442Z,112.52
2023-04-07T17:52:36.371Z,120.62
2023-04-07T17:55:09.559Z,122.44
2023-04-07T17:57:45.237Z,150.10
2023-04-07T18:00:18.061Z,149.34
2023-04-07T18:02:51.329Z,137.71
2023-04-07T18:05:23.844Z,130.39
2023-04-07T18:07:57.560Z,123.12
2023-04-07T18:10:29.826Z,123.05
2023-04-07T18:13:05.809Z,126.90
2023-04-07T18:15:38.760Z,131.32
2023-04-07T18:18:11.126Z,121.06
2023-04-07T18:20:43.458Z,124.22
2023-04-07T18:23:15.889Z,129.76
2023-04-07T18:25:48.282Z,124.21
2023-04-07T18:28:23.173Z,126.17
2023-04-07T18:31:04.982Z,125.98
2023-04-07T18:33:37.651Z,126.39
2023-04-07T18:36:12.029Z,130.04
2023-04-07T18:38:44.370Z,136.14
2023-04-07T18:41:16.987Z,143.89
2023-04-07T18:43:52.082Z,148.78
2023-04-07T18:46:24.325Z,157.27
2023-04-07T18:48:56.532Z,153.42
2023-04-07T18:51:28.795Z,156.61
2023-04-07T18:54:01.444Z,154.51
2023-04-07T18:56:34.996Z,151.21
2023-04-07T18:59:10.120Z,152.38
2023-04-07T19:01:42.769Z,170.19
2023-04-07T19:04:15.333Z,188.67
2023-04-07T19:06:47.660Z,182.81
2023-04-07T19:09:19.968Z,174.41
2023-04-07T19:11:52.563Z,181.28
2023-04-07T19:14:27.409Z,193.91
2023-04-07T19:16:59.700Z,207.08
2023-04-07T19:19:32.082Z,229.29
2023-04-07T19:22:05.369Z,246.28
2023-04-07T19:24:37.648Z,233.66
2023-04-07T19:27:12.138Z,224.56
2023-04-07T19:29:46.987Z,206.67
2023-04-07T19:32:19.278Z,191.56
2023-04-07T19:34:51.451Z,187.49
2023-04-07T19:37:23.709Z,187.04
2023-04-07T19:40:02.757Z,178.22
2023-04-07T19:42:35.909Z,175.29
2023-04-07T19:45:11.853Z,172.89
2023-04-07T19:47:44.655Z,178.91
2023-04-07T19:50:17.788Z,189.29
2023-04-07T19:52:50.919Z,193.19
2023-04-07T19:55:24.203Z,187.07
2023-04-07T19:57:57.020Z,185.96
2023-04-07T20:00:33.522Z,184.26
2023-04-07T20:03:06.412Z,188.94
2023-04-07T20:05:39.271Z,191.91
2023-04-07T20:08:11.563Z,188.73
2023-04-07T20:10:43.777Z,184.03
2023-04-07T20:13:16.061Z,185.84
2023-04-07T20:15:51.487Z,191.96
2023-04-07T20:18:23.699Z,195.10
2023-04-07T20:21:02.908Z,191.36
2023-04-07T20:23:35.343Z,192.81
2023-04-07T20:26:09.242Z,193.01
2023-04-07T20:28:41.468Z,186.54
2023-04-07T20:31:16.300Z,186.97
2023-04-07T20:33:48.565Z,188.11
2023-04-07T20:36:21.071Z,188.76
2023-04-07T20:38:53.273Z,193.69
2023-04-07T20:41:25.545Z,202.02
2023-04-07T20:43:57.748Z,205.09
2023-04-07T20:46:33.674Z,223.73
2023-04-07T20:49:07.949Z,224.18
2023-04-07T20:51:40.537Z,212.30
2023-04-07T20:54:12.771Z,213.36
2023-04-07T20:56:45.223Z,212.16
2023-04-07T20:59:17.430Z,213.77
2023-04-07T21:01:52.426Z,219.56
2023-04-07T21:04:24.901Z,217.50
2023-04-07T21:06:57.282Z,213.44
2023-04-07T21:09:29.524Z,214.28
2023-04-07T21:12:03.723Z,224.14
2023-04-07T21:14:36.084Z,218.91
2023-04-07T21:17:10.922Z,220.35
2023-04-07T21:19:43.118Z,226.60
2023-04-07T21:22:15.507Z,219.10
2023-04-07T21:24:47.781Z,224.04
2023-04-07T21:27:20.455Z,217.76
2023-04-07T21:29:52.843Z,226.76
2023-04-07T21:32:27.926Z,238.39
2023-04-07T21:35:00.250Z,236.50
2023-04-07T21:37:32.454Z,232.99
2023-04-07T21:40:04.686Z,229.93
2023-04-07T21:42:36.927Z,219.18
2023-04-07T21:45:10.614Z,216.34
2023-04-07T21:47:45.416Z,214.26
2023-04-07T21:50:17.712Z,214.89
2023-04-07T21:52:51.683Z,214.33
2023-04-07T21:55:24.141Z,207.65
2023-04-07T21:57:56.614Z,206.31
2023-04-07T22:00:28.987Z,193.91
2023-04-07T22:03:04.053Z,192.94
2023-04-07T22:05:36.391Z,185.02
2023-04-07T22:08:08.884Z,183.25
2023-04-07T22:10:41.452Z,187.11
2023-04-07T22:13:14.062Z,192.31
2023-04-07T22:15:46.546Z,196.64
2023-04-07T22:18:22.201Z,191.56
2023-04-07T22:20:54.492Z,187.98
2023-04-07T22:23:26.817Z,194.77
2023-04-07T22:25:59.053Z,194.89
2023-04-07T22:28:31.391Z,196.23
2023-04-07T22:31:03.956Z,195.77
2023-04-07T22:33:38.879Z,193.08
2023-04-07T22:36:11.402Z,187.09
2023-04-07T22:38:43.618Z,188.64
2023-04-07T22:41:15.918Z,192.28
2023-04-07T22:43:48.183Z,189.13
2023-04-07T22:46:20.539Z,184.46
2023-04-07T22:48:55.320Z,183.24
2023-04-07T22:51:29.519Z,186.71
2023-04-07T22:54:01.728Z,186.17
2023-04-07T22:56:33.979Z,187.88
2023-04-07T22:59:06.384Z,184.81
2023-04-07T23:01:38.731Z,181.91
2023-04-07T23:04:13.641Z,179.95
2023-04-07T23:06:45.849Z,184.84
2023-04-07T23:09:18.150Z,181.91
2023-04-07T23:11:50.492Z,183.46
2023-04-07T23:14:22.668Z,184.76
2023-04-07T23:16:56.193Z,184.82
2023-04-07T23:19:31.262Z,182.04
2023-04-07T23:22:03.574Z,173.65
2023-04-07T23:24:36.144Z,178.54
2023-04-07T23:27:08.481Z,167.29
2023-04-07T23:29:40.756Z,164.35
2023-04-07T23:32:13.110Z,160.15
2023-04-07T23:34:48.044Z,162.57
2023-04-07T23:37:20.340Z,165.76
2023-04-07T23:39:52.491Z,171.06
2023-04-07T23:42:24.710Z,164.96
2023-04-07T23:44:56.975Z,162.52
2023-04-07T23:47:29.423Z,163.06
2023-04-07T23:50:04.225Z,164.11
2023-04-07T23:52:37.504Z,157.56
2023-04-07T23:55:10.885Z,163.44
2023-04-07T23:57:43.212Z,169.72
